sensor_id;sensor_type;location;lat;lon;timestamp;P1;durP1;ratioP1;P2;durP2;ratioP2
29824;SDS011;16713;52.916;12.834;2022-12-18T00:01:12;48.88;;;20.05;;
29824;SDS011;16713;52.916;12.834;2022-12-18T00:03:47;42.25;;;17.35;;
29824;SDS011;16713;52.916;12.834;2022-12-18T00:06:14;46.13;;;19.55;;
29824;SDS011;16713;52.916;12.834;2022-12-18T00:08:41;42.65;;;17.30;;
29824;SDS011;16713;52.916;12.834;2022-12-18T00:11:10;51.35;;;19.00;;
29824;SDS011;16713;52.916;12.834;2022-12-18T00:13:38;47.53;;;18.85;;
29824;SDS011;16713;52.916;12.834;2022-12-18T00:16:07;49.08;;;19.58;;
29824;SDS011;16713;52.916;12.834;2022-12-18T00:18:35;50.78;;;20.60;;
29824;SDS011;16713;52.916;12.834;2022-12-18T00:21:03;52.17;;;20.70;;
29824;SDS011;16713;52.916;12.834;2022-12-18T00:23:32;57.75;;;22.05;;
29824;SDS011;16713;52.916;12.834;2022-12-18T00:26:01;58.63;;;22.25;;
29824;SDS011;16713;52.916;12.834;2022-12-18T00:28:28;55.63;;;22.35;;
29824;SDS011;16713;52.916;12.834;2022-12-18T00:31:05;55.88;;;22.88;;
29824;SDS011;16713;52.916;12.834;2022-12-18T00:33:34;53.85;;;21.15;;
29824;SDS011;16713;52.916;12.834;2022-12-18T00:36:02;44.03;;;18.95;;
29824;SDS011;16713;52.916;12.834;2022-12-18T00:38:30;45.05;;;19.42;;
29824;SDS011;16713;52.916;12.834;2022-12-18T00:40:57;44.50;;;19.92;;
29824;SDS011;16713;52.916;12.834;2022-12-18T00:43:23;50.70;;;20.73;;
29824;SDS011;16713;52.916;12.834;2022-12-18T00:45:50;48.85;;;19.23;;
29824;SDS011;16713;52.916;12.834;2022-12-18T00:48:16;53.58;;;20.63;;
29824;SDS011;16713;52.916;12.834;2022-12-18T00:50:43;50.92;;;19.15;;
29824;SDS011;16713;52.916;12.834;2022-12-18T00:53:09;49.83;;;19.25;;
29824;SDS011;16713;52.916;12.834;2022-12-18T00:55:39;50.75;;;21.23;;
29824;SDS011;16713;52.916;12.834;2022-12-18T00:58:06;53.90;;;20.87;;
29824;SDS011;16713;52.916;12.834;2022-12-18T01:00:33;56.42;;;20.92;;
29824;SDS011;16713;52.916;12.834;2022-12-18T01:03:01;53.65;;;19.70;;
29824;SDS011;16713;52.916;12.834;2022-12-18T01:05:28;50.22;;;20.98;;
29824;SDS011;16713;52.916;12.834;2022-12-18T01:07:55;45.92;;;20.33;;
29824;SDS011;16713;52.916;12.834;2022-12-18T01:10:23;55.97;;;21.08;;
29824;SDS011;16713;52.916;12.834;2022-12-18T01:12:49;56.75;;;22.02;;
29824;SDS011;16713;52.916;12.834;2022-12-18T01:15:16;50.30;;;20.73;;
29824;SDS011;16713;52.916;12.834;2022-12-18T01:17:43;47.22;;;19.35;;
29824;SDS011;16713;52.916;12.834;2022-12-18T01:20:11;51.35;;;19.45;;
29824;SDS011;16713;52.916;12.834;2022-12-18T01:22:38;59.28;;;22.67;;
29824;SDS011;16713;52.916;12.834;2022-12-18T01:25:04;48.28;;;19.30;;
29824;SDS011;16713;52.916;12.834;2022-12-18T01:27:33;49.20;;;18.77;;
29824;SDS011;16713;52.916;12.834;2022-12-18T01:30:00;50.80;;;19.75;;
29824;SDS011;16713;52.916;12.834;2022-12-18T01:32:28;47.92;;;19.35;;
29824;SDS011;16713;52.916;12.834;2022-12-18T01:34:56;49.67;;;19.58;;
29824;SDS011;16713;52.916;12.834;2022-12-18T01:37:22;53.13;;;20.05;;
29824;SDS011;16713;52.916;12.834;2022-12-18T01:39:49;44.08;;;19.30;;
29824;SDS011;16713;52.916;12.834;2022-12-18T01:42:16;51.58;;;20.13;;
29824;SDS011;16713;52.916;12.834;2022-12-18T01:47:32;55.40;;;21.67;;
29824;SDS011;16713;52.916;12.834;2022-12-18T01:50:21;61.38;;;23.83;;
29824;SDS011;16713;52.916;12.834;2022-12-18T01:55:37;59.25;;;22.77;;
29824;SDS011;16713;52.916;12.834;2022-12-18T01:58:09;55.53;;;22.08;;
29824;SDS011;16713;52.916;12.834;2022-12-18T02:00:36;49.58;;;19.75;;
29824;SDS011;16713;52.916;12.834;2022-12-18T02:03:02;50.40;;;20.67;;
29824;SDS011;16713;52.916;12.834;2022-12-18T02:05:44;50.20;;;20.17;;
29824;SDS011;16713;52.916;12.834;2022-12-18T02:08:26;51.05;;;21.17;;
29824;SDS011;16713;52.916;12.834;2022-12-18T02:11:20;53.60;;;20.75;;
29824;SDS011;16713;52.916;12.834;2022-12-18T02:14:46;52.22;;;20.13;;
29824;SDS011;16713;52.916;12.834;2022-12-18T02:17:03;51.95;;;20.67;;
29824;SDS011;16713;52.916;12.834;2022-12-18T02:27:37;50.15;;;20.45;;
29824;SDS011;16713;52.916;12.834;2022-12-18T02:30:05;50.45;;;19.77;;
29824;SDS011;16713;52.916;12.834;2022-12-18T02:32:35;47.05;;;18.98;;
29824;SDS011;16713;52.916;12.834;2022-12-18T02:35:06;51.78;;;20.08;;
29824;SDS011;16713;52.916;12.834;2022-12-18T02:37:36;55.50;;;21.35;;
29824;SDS011;16713;52.916;12.834;2022-12-18T02:40:07;51.78;;;20.52;;
29824;SDS011;16713;52.916;12.834;2022-12-18T02:42:34;63.15;;;22.63;;
29824;SDS011;16713;52.916;12.834;2022-12-18T02:45:00;49.35;;;20.58;;
29824;SDS011;16713;52.916;12.834;2022-12-18T02:47:29;50.85;;;21.00;;
29824;SDS011;16713;52.916;12.834;2022-12-18T02:57:44;58.53;;;21.05;;
29824;SDS011;16713;52.916;12.834;2022-12-18T03:00:18;58.17;;;22.63;;
29824;SDS011;16713;52.916;12.834;2022-12-18T03:02:56;59.42;;;23.35;;
29824;SDS011;16713;52.916;12.834;2022-12-18T03:05:31;57.47;;;21.63;;
29824;SDS011;16713;52.916;12.834;2022-12-18T03:08:08;56.47;;;22.83;;
29824;SDS011;16713;52.916;12.834;2022-12-18T03:10:49;60.97;;;22.77;;
29824;SDS011;16713;52.916;12.834;2022-12-18T03:13:23;60.38;;;21.23;;
29824;SDS011;16713;52.916;12.834;2022-12-18T03:15:54;56.55;;;22.67;;
29824;SDS011;16713;52.916;12.834;2022-12-18T03:18:25;64.75;;;23.35;;
29824;SDS011;16713;52.916;12.834;2022-12-18T03:20:57;63.25;;;22.83;;
29824;SDS011;16713;52.916;12.834;2022-12-18T03:23:27;63.40;;;22.45;;
29824;SDS011;16713;52.916;12.834;2022-12-18T03:25:58;63.50;;;22.02;;
29824;SDS011;16713;52.916;12.834;2022-12-18T03:28:33;57.92;;;21.70;;
29824;SDS011;16713;52.916;12.834;2022-12-18T03:31:03;60.47;;;21.80;;
29824;SDS011;16713;52.916;12.834;2022-12-18T03:34:09;61.72;;;22.95;;
29824;SDS011;16713;52.916;12.834;2022-12-18T03:36:29;60.47;;;22.55;;
29824;SDS011;16713;52.916;12.834;2022-12-18T03:38:57;62.85;;;23.55;;
29824;SDS011;16713;52.916;12.834;2022-12-18T03:49:47;65.75;;;24.92;;
29824;SDS011;16713;52.916;12.834;2022-12-18T03:54:48;69.68;;;24.85;;
29824;SDS011;16713;52.916;12.834;2022-12-18T03:57:16;74.80;;;26.17;;
29824;SDS011;16713;52.916;12.834;2022-12-18T04:02:16;78.78;;;25.52;;
29824;SDS011;16713;52.916;12.834;2022-12-18T04:04:43;79.22;;;27.70;;
29824;SDS011;16713;52.916;12.834;2022-12-18T04:07:12;69.60;;;25.38;;
29824;SDS011;16713;52.916;12.834;2022-12-18T04:09:40;76.32;;;27.27;;
29824;SDS011;16713;52.916;12.834;2022-12-18T04:12:08;67.25;;;24.23;;
29824;SDS011;16713;52.916;12.834;2022-12-18T04:14:35;65.78;;;26.35;;
29824;SDS011;16713;52.916;12.834;2022-12-18T04:17:02;66.93;;;24.70;;
29824;SDS011;16713;52.916;12.834;2022-12-18T04:19:28;66.35;;;25.10;;
29824;SDS011;16713;52.916;12.834;2022-12-18T04:21:55;71.45;;;25.27;;
29824;SDS011;16713;52.916;12.834;2022-12-18T04:24:21;61.38;;;23.63;;
29824;SDS011;16713;52.916;12.834;2022-12-18T04:26:48;68.72;;;24.77;;
29824;SDS011;16713;52.916;12.834;2022-12-18T04:29:14;64.20;;;24.40;;
29824;SDS011;16713;52.916;12.834;2022-12-18T04:31:41;62.13;;;21.98;;
29824;SDS011;16713;52.916;12.834;2022-12-18T04:34:07;65.43;;;24.42;;
29824;SDS011;16713;52.916;12.834;2022-12-18T04:36:33;67.80;;;23.83;;
29824;SDS011;16713;52.916;12.834;2022-12-18T04:39:00;68.15;;;25.33;;
29824;SDS011;16713;52.916;12.834;2022-12-18T04:41:26;68.68;;;24.75;;
29824;SDS011;16713;52.916;12.834;2022-12-18T04:43:53;74.78;;;25.20;;
29824;SDS011;16713;52.916;12.834;2022-12-18T04:46:19;71.25;;;25.80;;
29824;SDS011;16713;52.916;12.834;2022-12-18T04:48:46;69.45;;;25.30;;
29824;SDS011;16713;52.916;12.834;2022-12-18T04:51:13;69.88;;;25.08;;
29824;SDS011;16713;52.916;12.834;2022-12-18T04:53:39;76.38;;;27.00;;
29824;SDS011;16713;52.916;12.834;2022-12-18T04:56:08;79.53;;;27.90;;
29824;SDS011;16713;52.916;12.834;2022-12-18T04:58:36;76.13;;;29.08;;
29824;SDS011;16713;52.916;12.834;2022-12-18T05:01:04;79.63;;;27.42;;
29824;SDS011;16713;52.916;12.834;2022-12-18T05:03:31;86.45;;;28.88;;
29824;SDS011;16713;52.916;12.834;2022-12-18T05:05:57;81.03;;;27.83;;
29824;SDS011;16713;52.916;12.834;2022-12-18T05:08:24;75.78;;;28.17;;
29824;SDS011;16713;52.916;12.834;2022-12-18T05:10:57;79.00;;;28.17;;
29824;SDS011;16713;52.916;12.834;2022-12-18T05:13:36;80.55;;;28.48;;
29824;SDS011;16713;52.916;12.834;2022-12-18T05:16:04;70.32;;;26.23;;
29824;SDS011;16713;52.916;12.834;2022-12-18T05:18:31;73.63;;;26.38;;
29824;SDS011;16713;52.916;12.834;2022-12-18T05:20:58;77.45;;;27.70;;
29824;SDS011;16713;52.916;12.834;2022-12-18T05:23:25;72.00;;;23.95;;
29824;SDS011;16713;52.916;12.834;2022-12-18T05:25:55;65.03;;;23.67;;
29824;SDS011;16713;52.916;12.834;2022-12-18T05:28:24;69.35;;;23.23;;
29824;SDS011;16713;52.916;12.834;2022-12-18T05:30:52;75.82;;;25.55;;
29824;SDS011;16713;52.916;12.834;2022-12-18T05:33:20;68.80;;;24.23;;
29824;SDS011;16713;52.916;12.834;2022-12-18T05:35:51;65.07;;;22.27;;
29824;SDS011;16713;52.916;12.834;2022-12-18T05:38:20;72.50;;;24.60;;
29824;SDS011;16713;52.916;12.834;2022-12-18T05:40:48;68.97;;;25.83;;
29824;SDS011;16713;52.916;12.834;2022-12-18T05:43:15;59.67;;;22.95;;
29824;SDS011;16713;52.916;12.834;2022-12-18T05:45:46;66.13;;;22.40;;
29824;SDS011;16713;52.916;12.834;2022-12-18T05:48:14;71.00;;;24.52;;
29824;SDS011;16713;52.916;12.834;2022-12-18T05:50:41;66.28;;;22.08;;
29824;SDS011;16713;52.916;12.834;2022-12-18T05:53:11;72.05;;;25.33;;
29824;SDS011;16713;52.916;12.834;2022-12-18T05:55:40;69.70;;;24.13;;
29824;SDS011;16713;52.916;12.834;2022-12-18T05:58:08;70.15;;;25.58;;
29824;SDS011;16713;52.916;12.834;2022-12-18T06:00:39;71.80;;;25.33;;
29824;SDS011;16713;52.916;12.834;2022-12-18T06:03:07;76.30;;;24.33;;
29824;SDS011;16713;52.916;12.834;2022-12-18T06:05:44;67.28;;;22.63;;
29824;SDS011;16713;52.916;12.834;2022-12-18T06:08:12;74.53;;;24.92;;
29824;SDS011;16713;52.916;12.834;2022-12-18T06:10:39;62.70;;;23.05;;
29824;SDS011;16713;52.916;12.834;2022-12-18T06:13:06;70.78;;;23.40;;
29824;SDS011;16713;52.916;12.834;2022-12-18T06:15:35;68.00;;;23.33;;
29824;SDS011;16713;52.916;12.834;2022-12-18T06:18:03;66.90;;;21.90;;
29824;SDS011;16713;52.916;12.834;2022-12-18T06:20:29;64.45;;;22.05;;
29824;SDS011;16713;52.916;12.834;2022-12-18T06:22:59;65.70;;;23.67;;
29824;SDS011;16713;52.916;12.834;2022-12-18T06:25:25;68.05;;;23.90;;
29824;SDS011;16713;52.916;12.834;2022-12-18T06:27:52;75.18;;;26.20;;
29824;SDS011;16713;52.916;12.834;2022-12-18T06:30:18;79.57;;;23.98;;
29824;SDS011;16713;52.916;12.834;2022-12-18T06:32:45;70.15;;;24.73;;
29824;SDS011;16713;52.916;12.834;2022-12-18T06:35:16;68.35;;;23.63;;
29824;SDS011;16713;52.916;12.834;2022-12-18T06:37:44;69.75;;;24.13;;
29824;SDS011;16713;52.916;12.834;2022-12-18T06:40:10;68.28;;;22.77;;
29824;SDS011;16713;52.916;12.834;2022-12-18T06:42:36;73.88;;;24.58;;
29824;SDS011;16713;52.916;12.834;2022-12-18T06:45:03;85.97;;;25.92;;
29824;SDS011;16713;52.916;12.834;2022-12-18T06:47:30;75.97;;;24.73;;
29824;SDS011;16713;52.916;12.834;2022-12-18T06:49:56;75.32;;;25.00;;
29824;SDS011;16713;52.916;12.834;2022-12-18T06:52:22;70.97;;;24.10;;
29824;SDS011;16713;52.916;12.834;2022-12-18T06:54:49;67.22;;;22.45;;
29824;SDS011;16713;52.916;12.834;2022-12-18T06:57:15;70.43;;;23.30;;
29824;SDS011;16713;52.916;12.834;2022-12-18T06:59:42;64.80;;;22.35;;
29824;SDS011;16713;52.916;12.834;2022-12-18T07:02:10;68.43;;;23.65;;
29824;SDS011;16713;52.916;12.834;2022-12-18T07:04:38;67.57;;;23.45;;
29824;SDS011;16713;52.916;12.834;2022-12-18T07:07:05;73.95;;;23.52;;
29824;SDS011;16713;52.916;12.834;2022-12-18T07:09:31;71.53;;;22.58;;
29824;SDS011;16713;52.916;12.834;2022-12-18T07:11:57;59.28;;;22.25;;
29824;SDS011;16713;52.916;12.834;2022-12-18T07:14:24;61.83;;;22.42;;
29824;SDS011;16713;52.916;12.834;2022-12-18T07:16:51;68.88;;;24.23;;
29824;SDS011;16713;52.916;12.834;2022-12-18T07:19:17;72.75;;;24.92;;
29824;SDS011;16713;52.916;12.834;2022-12-18T07:21:44;76.65;;;25.23;;
29824;SDS011;16713;52.916;12.834;2022-12-18T07:24:10;63.30;;;25.38;;
29824;SDS011;16713;52.916;12.834;2022-12-18T07:26:36;65.00;;;22.52;;
29824;SDS011;16713;52.916;12.834;2022-12-18T07:29:03;68.72;;;24.02;;
29824;SDS011;16713;52.916;12.834;2022-12-18T07:31:29;72.85;;;25.00;;
29824;SDS011;16713;52.916;12.834;2022-12-18T07:33:56;76.50;;;23.65;;
29824;SDS011;16713;52.916;12.834;2022-12-18T07:36:23;67.75;;;24.52;;
29824;SDS011;16713;52.916;12.834;2022-12-18T07:38:49;81.00;;;26.83;;
29824;SDS011;16713;52.916;12.834;2022-12-18T07:41:17;71.80;;;22.60;;
29824;SDS011;16713;52.916;12.834;2022-12-18T07:43:44;69.15;;;24.00;;
29824;SDS011;16713;52.916;12.834;2022-12-18T07:46:11;69.72;;;23.73;;
29824;SDS011;16713;52.916;12.834;2022-12-18T07:48:42;65.68;;;23.90;;
29824;SDS011;16713;52.916;12.834;2022-12-18T07:51:11;73.22;;;24.85;;
29824;SDS011;16713;52.916;12.834;2022-12-18T07:53:38;72.90;;;24.05;;
29824;SDS011;16713;52.916;12.834;2022-12-18T07:56:07;76.47;;;25.55;;
29824;SDS011;16713;52.916;12.834;2022-12-18T07:58:55;70.75;;;25.15;;
29824;SDS011;16713;52.916;12.834;2022-12-18T08:01:22;58.20;;;22.52;;
29824;SDS011;16713;52.916;12.834;2022-12-18T08:03:49;74.95;;;25.00;;
29824;SDS011;16713;52.916;12.834;2022-12-18T08:06:17;64.55;;;23.27;;
29824;SDS011;16713;52.916;12.834;2022-12-18T08:08:48;68.90;;;22.63;;
29824;SDS011;16713;52.916;12.834;2022-12-18T08:11:15;67.68;;;22.83;;
29824;SDS011;16713;52.916;12.834;2022-12-18T08:13:41;70.07;;;24.85;;
29824;SDS011;16713;52.916;12.834;2022-12-18T08:16:08;58.60;;;23.48;;
29824;SDS011;16713;52.916;12.834;2022-12-18T08:18:35;64.13;;;23.05;;
29824;SDS011;16713;52.916;12.834;2022-12-18T08:21:16;74.80;;;25.90;;
29824;SDS011;16713;52.916;12.834;2022-12-18T08:23:46;72.30;;;25.08;;
29824;SDS011;16713;52.916;12.834;2022-12-18T08:26:14;72.18;;;26.48;;
29824;SDS011;16713;52.916;12.834;2022-12-18T08:28:41;78.80;;;26.75;;
29824;SDS011;16713;52.916;12.834;2022-12-18T08:31:08;77.18;;;25.83;;
29824;SDS011;16713;52.916;12.834;2022-12-18T08:33:35;73.60;;;24.73;;
29824;SDS011;16713;52.916;12.834;2022-12-18T08:36:04;65.93;;;24.20;;
29824;SDS011;16713;52.916;12.834;2022-12-18T08:38:32;66.40;;;25.15;;
29824;SDS011;16713;52.916;12.834;2022-12-18T08:41:03;66.93;;;24.10;;
29824;SDS011;16713;52.916;12.834;2022-12-18T08:43:35;61.13;;;23.35;;
29824;SDS011;16713;52.916;12.834;2022-12-18T08:46:20;63.78;;;22.80;;
29824;SDS011;16713;52.916;12.834;2022-12-18T08:48:50;70.10;;;25.10;;
29824;SDS011;16713;52.916;12.834;2022-12-18T08:51:17;63.05;;;25.83;;
29824;SDS011;16713;52.916;12.834;2022-12-18T08:53:44;68.25;;;24.80;;
29824;SDS011;16713;52.916;12.834;2022-12-18T08:56:12;67.45;;;26.65;;
29824;SDS011;16713;52.916;12.834;2022-12-18T08:58:40;68.82;;;24.65;;
29824;SDS011;16713;52.916;12.834;2022-12-18T09:01:08;65.95;;;23.13;;
29824;SDS011;16713;52.916;12.834;2022-12-18T09:03:36;65.45;;;24.50;;
29824;SDS011;16713;52.916;12.834;2022-12-18T09:06:04;70.30;;;25.52;;
29824;SDS011;16713;52.916;12.834;2022-12-18T09:08:32;62.08;;;23.45;;
29824;SDS011;16713;52.916;12.834;2022-12-18T09:10:58;64.43;;;23.90;;
29824;SDS011;16713;52.916;12.834;2022-12-18T09:13:24;68.75;;;24.60;;
29824;SDS011;16713;52.916;12.834;2022-12-18T09:15:51;78.72;;;27.88;;
29824;SDS011;16713;52.916;12.834;2022-12-18T09:18:20;76.78;;;28.45;;
29824;SDS011;16713;52.916;12.834;2022-12-18T09:20:47;63.55;;;24.25;;
29824;SDS011;16713;52.916;12.834;2022-12-18T09:23:14;63.00;;;23.92;;
29824;SDS011;16713;52.916;12.834;2022-12-18T09:25:40;67.10;;;25.23;;
29824;SDS011;16713;52.916;12.834;2022-12-18T09:28:11;73.70;;;26.35;;
29824;SDS011;16713;52.916;12.834;2022-12-18T09:30:39;74.18;;;26.25;;
29824;SDS011;16713;52.916;12.834;2022-12-18T09:33:10;66.68;;;25.92;;
29824;SDS011;16713;52.916;12.834;2022-12-18T09:35:37;65.47;;;25.98;;
29824;SDS011;16713;52.916;12.834;2022-12-18T09:38:07;70.60;;;28.02;;
29824;SDS011;16713;52.916;12.834;2022-12-18T09:40:47;59.72;;;23.55;;
29824;SDS011;16713;52.916;12.834;2022-12-18T09:43:28;54.90;;;21.70;;
29824;SDS011;16713;52.916;12.834;2022-12-18T09:46:03;60.97;;;23.73;;
29824;SDS011;16713;52.916;12.834;2022-12-18T09:48:38;57.80;;;22.25;;
29824;SDS011;16713;52.916;12.834;2022-12-18T09:51:13;60.05;;;22.55;;
29824;SDS011;16713;52.916;12.834;2022-12-18T09:53:47;57.80;;;23.38;;
29824;SDS011;16713;52.916;12.834;2022-12-18T09:56:24;61.40;;;22.60;;
29824;SDS011;16713;52.916;12.834;2022-12-18T09:58:58;63.75;;;23.58;;
29824;SDS011;16713;52.916;12.834;2022-12-18T10:01:26;63.00;;;25.42;;
29824;SDS011;16713;52.916;12.834;2022-12-18T10:04:08;58.03;;;23.20;;
29824;SDS011;16713;52.916;12.834;2022-12-18T10:06:37;58.30;;;24.27;;
29824;SDS011;16713;52.916;12.834;2022-12-18T10:20:49;53.95;;;21.05;;
29824;SDS011;16713;52.916;12.834;2022-12-18T10:25:51;53.50;;;22.05;;
29824;SDS011;16713;52.916;12.834;2022-12-18T10:28:19;60.53;;;24.10;;
29824;SDS011;16713;52.916;12.834;2022-12-18T10:30:46;61.30;;;22.98;;
29824;SDS011;16713;52.916;12.834;2022-12-18T10:33:20;53.30;;;21.55;;
29824;SDS011;16713;52.916;12.834;2022-12-18T10:35:51;49.53;;;21.85;;
29824;SDS011;16713;52.916;12.834;2022-12-18T10:43:25;58.20;;;22.75;;
29824;SDS011;16713;52.916;12.834;2022-12-18T10:48:57;62.75;;;23.52;;
29824;SDS011;16713;52.916;12.834;2022-12-18T10:51:28;60.83;;;23.17;;
29824;SDS011;16713;52.916;12.834;2022-12-18T10:53:59;57.88;;;22.33;;
29824;SDS011;16713;52.916;12.834;2022-12-18T10:56:32;61.65;;;22.52;;
29824;SDS011;16713;52.916;12.834;2022-12-18T10:59:02;57.42;;;22.58;;
29824;SDS011;16713;52.916;12.834;2022-12-18T11:02:23;61.33;;;23.80;;
29824;SDS011;16713;52.916;12.834;2022-12-18T11:04:25;67.53;;;24.38;;
29824;SDS011;16713;52.916;12.834;2022-12-18T11:07:01;70.68;;;25.95;;
29824;SDS011;16713;52.916;12.834;2022-12-18T11:09:35;70.05;;;26.85;;
29824;SDS011;16713;52.916;12.834;2022-12-18T11:14:42;75.68;;;28.20;;
29824;SDS011;16713;52.916;12.834;2022-12-18T11:17:24;74.28;;;29.25;;
29824;SDS011;16713;52.916;12.834;2022-12-18T11:20:02;75.93;;;28.38;;
29824;SDS011;16713;52.916;12.834;2022-12-18T11:28:02;78.10;;;29.63;;
29824;SDS011;16713;52.916;12.834;2022-12-18T11:31:08;83.72;;;30.23;;
29824;SDS011;16713;52.916;12.834;2022-12-18T11:34:10;84.80;;;29.88;;
29824;SDS011;16713;52.916;12.834;2022-12-18T11:41:59;71.78;;;26.65;;
29824;SDS011;16713;52.916;12.834;2022-12-18T11:44:58;87.28;;;30.38;;
29824;SDS011;16713;52.916;12.834;2022-12-18T11:47:44;87.55;;;33.22;;
29824;SDS011;16713;52.916;12.834;2022-12-18T11:50:13;84.13;;;29.77;;
29824;SDS011;16713;52.916;12.834;2022-12-18T11:53:00;77.40;;;29.58;;
29824;SDS011;16713;52.916;12.834;2022-12-18T12:16:48;70.05;;;27.73;;
29824;SDS011;16713;52.916;12.834;2022-12-18T12:28:03;59.45;;;22.90;;
29824;SDS011;16713;52.916;12.834;2022-12-18T12:34:13;62.95;;;26.48;;
29824;SDS011;16713;52.916;12.834;2022-12-18T12:42:58;59.38;;;22.30;;
29824;SDS011;16713;52.916;12.834;2022-12-18T12:51:21;62.80;;;25.48;;
29824;SDS011;16713;52.916;12.834;2022-12-18T12:53:54;64.45;;;23.92;;
29824;SDS011;16713;52.916;12.834;2022-12-18T12:56:47;54.00;;;22.02;;
29824;SDS011;16713;52.916;12.834;2022-12-18T13:04:58;55.10;;;21.73;;
29824;SDS011;16713;52.916;12.834;2022-12-18T13:07:37;65.65;;;25.60;;
29824;SDS011;16713;52.916;12.834;2022-12-18T13:10:24;63.15;;;22.67;;
29824;SDS011;16713;52.916;12.834;2022-12-18T13:13:07;60.78;;;24.52;;
29824;SDS011;16713;52.916;12.834;2022-12-18T13:16:03;56.45;;;23.08;;
29824;SDS011;16713;52.916;12.834;2022-12-18T13:18:48;64.35;;;25.10;;
29824;SDS011;16713;52.916;12.834;2022-12-18T13:21:27;61.15;;;24.10;;
29824;SDS011;16713;52.916;12.834;2022-12-18T13:24:21;69.88;;;25.70;;
29824;SDS011;16713;52.916;12.834;2022-12-18T13:27:03;72.65;;;24.35;;
29824;SDS011;16713;52.916;12.834;2022-12-18T13:30:36;59.90;;;24.05;;
29824;SDS011;16713;52.916;12.834;2022-12-18T13:33:42;65.10;;;24.95;;
29824;SDS011;16713;52.916;12.834;2022-12-18T13:36:32;54.40;;;23.02;;
29824;SDS011;16713;52.916;12.834;2022-12-18T13:41:52;50.33;;;19.17;;
29824;SDS011;16713;52.916;12.834;2022-12-18T13:45:35;46.63;;;19.92;;
29824;SDS011;16713;52.916;12.834;2022-12-18T13:48:12;57.47;;;22.00;;
29824;SDS011;16713;52.916;12.834;2022-12-18T13:50:42;57.95;;;23.50;;
29824;SDS011;16713;52.916;12.834;2022-12-18T13:53:15;53.20;;;22.67;;
29824;SDS011;16713;52.916;12.834;2022-12-18T13:55:49;51.45;;;21.73;;
29824;SDS011;16713;52.916;12.834;2022-12-18T13:58:16;50.08;;;20.35;;
29824;SDS011;16713;52.916;12.834;2022-12-18T14:00:43;53.10;;;21.67;;
29824;SDS011;16713;52.916;12.834;2022-12-18T14:03:18;49.40;;;20.38;;
29824;SDS011;16713;52.916;12.834;2022-12-18T14:06:03;42.60;;;18.20;;
29824;SDS011;16713;52.916;12.834;2022-12-18T14:08:38;52.55;;;21.42;;
29824;SDS011;16713;52.916;12.834;2022-12-18T14:11:07;52.25;;;20.30;;
29824;SDS011;16713;52.916;12.834;2022-12-18T14:13:47;50.13;;;21.48;;
29824;SDS011;16713;52.916;12.834;2022-12-18T14:16:14;53.92;;;21.88;;
29824;SDS011;16713;52.916;12.834;2022-12-18T14:18:48;46.58;;;19.75;;
29824;SDS011;16713;52.916;12.834;2022-12-18T14:21:19;56.47;;;23.45;;
29824;SDS011;16713;52.916;12.834;2022-12-18T14:23:49;57.83;;;24.33;;
29824;SDS011;16713;52.916;12.834;2022-12-18T14:26:31;61.38;;;25.80;;
29824;SDS011;16713;52.916;12.834;2022-12-18T14:29:22;59.47;;;23.73;;
29824;SDS011;16713;52.916;12.834;2022-12-18T14:32:05;60.78;;;24.02;;
29824;SDS011;16713;52.916;12.834;2022-12-18T14:34:37;65.28;;;24.40;;
29824;SDS011;16713;52.916;12.834;2022-12-18T14:37:03;64.88;;;24.60;;
29824;SDS011;16713;52.916;12.834;2022-12-18T14:39:30;60.50;;;26.05;;
29824;SDS011;16713;52.916;12.834;2022-12-18T14:41:56;59.58;;;24.60;;
29824;SDS011;16713;52.916;12.834;2022-12-18T14:44:23;60.55;;;26.50;;
29824;SDS011;16713;52.916;12.834;2022-12-18T14:46:49;58.55;;;26.08;;
29824;SDS011;16713;52.916;12.834;2022-12-18T14:51:50;57.05;;;24.60;;
29824;SDS011;16713;52.916;12.834;2022-12-18T14:54:19;55.42;;;24.65;;
29824;SDS011;16713;52.916;12.834;2022-12-18T14:56:48;65.07;;;26.63;;
29824;SDS011;16713;52.916;12.834;2022-12-18T14:59:21;63.28;;;25.50;;
29824;SDS011;16713;52.916;12.834;2022-12-18T15:02:01;60.80;;;25.75;;
29824;SDS011;16713;52.916;12.834;2022-12-18T15:04:38;63.40;;;25.88;;
29824;SDS011;16713;52.916;12.834;2022-12-18T15:07:12;63.75;;;25.60;;
29824;SDS011;16713;52.916;12.834;2022-12-18T15:09:40;66.38;;;26.75;;
29824;SDS011;16713;52.916;12.834;2022-12-18T15:18:14;61.03;;;25.63;;
29824;SDS011;16713;52.916;12.834;2022-12-18T15:20:53;49.42;;;21.50;;
29824;SDS011;16713;52.916;12.834;2022-12-18T15:23:23;53.15;;;23.70;;
29824;SDS011;16713;52.916;12.834;2022-12-18T15:25:57;59.38;;;24.63;;
29824;SDS011;16713;52.916;12.834;2022-12-18T15:28:28;58.10;;;23.83;;
29824;SDS011;16713;52.916;12.834;2022-12-18T15:33:31;56.90;;;22.58;;
29824;SDS011;16713;52.916;12.834;2022-12-18T15:36:03;58.30;;;23.92;;
29824;SDS011;16713;52.916;12.834;2022-12-18T15:38:31;56.83;;;23.15;;
29824;SDS011;16713;52.916;12.834;2022-12-18T15:40:58;53.17;;;23.60;;
29824;SDS011;16713;52.916;12.834;2022-12-18T15:43:24;57.45;;;25.85;;
29824;SDS011;16713;52.916;12.834;2022-12-18T15:46:01;54.40;;;22.92;;
29824;SDS011;16713;52.916;12.834;2022-12-18T15:48:29;57.60;;;24.33;;
29824;SDS011;16713;52.916;12.834;2022-12-18T15:50:58;62.13;;;25.15;;
29824;SDS011;16713;52.916;12.834;2022-12-18T15:53:25;61.80;;;26.52;;
29824;SDS011;16713;52.916;12.834;2022-12-18T15:55:56;54.22;;;24.88;;
29824;SDS011;16713;52.916;12.834;2022-12-18T15:58:42;57.92;;;25.23;;
29824;SDS011;16713;52.916;12.834;2022-12-18T16:01:09;63.92;;;24.60;;
29824;SDS011;16713;52.916;12.834;2022-12-18T16:03:36;62.83;;;26.15;;
29824;SDS011;16713;52.916;12.834;2022-12-18T16:06:04;55.17;;;24.30;;
29824;SDS011;16713;52.916;12.834;2022-12-18T16:08:31;52.33;;;23.55;;
29824;SDS011;16713;52.916;12.834;2022-12-18T16:10:57;54.60;;;24.90;;
29824;SDS011;16713;52.916;12.834;2022-12-18T16:13:24;59.45;;;24.63;;
29824;SDS011;16713;52.916;12.834;2022-12-18T16:15:50;57.65;;;27.00;;
29824;SDS011;16713;52.916;12.834;2022-12-18T16:18:17;58.42;;;27.73;;
29824;SDS011;16713;52.916;12.834;2022-12-18T16:20:43;58.25;;;26.52;;
29824;SDS011;16713;52.916;12.834;2022-12-18T16:23:10;55.45;;;25.33;;
29824;SDS011;16713;52.916;12.834;2022-12-18T16:25:36;62.70;;;26.33;;
29824;SDS011;16713;52.916;12.834;2022-12-18T16:28:03;60.47;;;25.23;;
29824;SDS011;16713;52.916;12.834;2022-12-18T16:30:30;56.63;;;26.42;;
29824;SDS011;16713;52.916;12.834;2022-12-18T16:33:03;54.03;;;24.13;;
29824;SDS011;16713;52.916;12.834;2022-12-18T16:35:32;60.80;;;26.90;;
29824;SDS011;16713;52.916;12.834;2022-12-18T16:37:59;62.05;;;28.00;;
29824;SDS011;16713;52.916;12.834;2022-12-18T16:40:25;56.65;;;27.10;;
29824;SDS011;16713;52.916;12.834;2022-12-18T16:42:52;54.10;;;24.75;;
29824;SDS011;16713;52.916;12.834;2022-12-18T16:45:18;55.90;;;25.83;;
29824;SDS011;16713;52.916;12.834;2022-12-18T16:47:45;55.85;;;26.13;;